sensor_id;sensor_type;location;lat;lon;timestamp;P1;durP1;ratioP1;P2;durP2;ratioP2
22715;SDS011;11525;51.152;4.456;2023-03-14T00:01:08;8.75;;;2.10;;
22715;SDS011;11525;51.152;4.456;2023-03-14T00:03:34;10.63;;;3.05;;
22715;SDS011;11525;51.152;4.456;2023-03-14T00:06:04;8.98;;;2.53;;
22715;SDS011;11525;51.152;4.456;2023-03-14T00:08:30;6.57;;;2.53;;
22715;SDS011;11525;51.152;4.456;2023-03-14T00:10:56;6.70;;;1.95;;
22715;SDS011;11525;51.152;4.456;2023-03-14T00:13:23;8.13;;;2.38;;
22715;SDS011;11525;51.152;4.456;2023-03-14T00:15:49;5.13;;;2.20;;
22715;SDS011;11525;51.152;4.456;2023-03-14T00:18:15;8.55;;;2.67;;
22715;SDS011;11525;51.152;4.456;2023-03-14T00:20:41;4.45;;;1.85;;
22715;SDS011;11525;51.152;4.456;2023-03-14T00:23:07;5.18;;;2.03;;
22715;SDS011;11525;51.152;4.456;2023-03-14T00:25:35;6.82;;;2.17;;
22715;SDS011;11525;51.152;4.456;2023-03-14T00:28:00;11.20;;;2.60;;
22715;SDS011;11525;51.152;4.456;2023-03-14T00:30:26;3.53;;;1.40;;
22715;SDS011;11525;51.152;4.456;2023-03-14T00:32:52;4.55;;;1.60;;
22715;SDS011;11525;51.152;4.456;2023-03-14T00:35:17;11.73;;;2.40;;
22715;SDS011;11525;51.152;4.456;2023-03-14T00:37:43;8.57;;;2.20;;
22715;SDS011;11525;51.152;4.456;2023-03-14T00:40:09;7.85;;;1.85;;
22715;SDS011;11525;51.152;4.456;2023-03-14T00:42:35;6.82;;;1.95;;
22715;SDS011;11525;51.152;4.456;2023-03-14T00:45:01;9.80;;;1.60;;
22715;SDS011;11525;51.152;4.456;2023-03-14T00:47:27;8.27;;;2.75;;
22715;SDS011;11525;51.152;4.456;2023-03-14T00:49:53;8.63;;;3.03;;
22715;SDS011;11525;51.152;4.456;2023-03-14T00:52:18;8.57;;;2.88;;
22715;SDS011;11525;51.152;4.456;2023-03-14T00:54:44;6.10;;;2.78;;
22715;SDS011;11525;51.152;4.456;2023-03-14T00:57:10;12.63;;;2.60;;
22715;SDS011;11525;51.152;4.456;2023-03-14T00:59:36;7.25;;;2.58;;
22715;SDS011;11525;51.152;4.456;2023-03-14T01:02:01;8.88;;;3.28;;
22715;SDS011;11525;51.152;4.456;2023-03-14T01:04:27;10.88;;;4.72;;
22715;SDS011;11525;51.152;4.456;2023-03-14T01:06:55;10.07;;;2.38;;
22715;SDS011;11525;51.152;4.456;2023-03-14T01:09:21;8.23;;;2.58;;
22715;SDS011;11525;51.152;4.456;2023-03-14T01:11:46;8.52;;;2.45;;
22715;SDS011;11525;51.152;4.456;2023-03-14T01:14:12;10.02;;;3.05;;
22715;SDS011;11525;51.152;4.456;2023-03-14T01:16:38;13.05;;;3.20;;
22715;SDS011;11525;51.152;4.456;2023-03-14T01:19:04;9.82;;;3.38;;
22715;SDS011;11525;51.152;4.456;2023-03-14T01:21:31;11.90;;;3.20;;
22715;SDS011;11525;51.152;4.456;2023-03-14T01:23:59;7.82;;;2.33;;
22715;SDS011;11525;51.152;4.456;2023-03-14T01:26:26;10.40;;;3.35;;
22715;SDS011;11525;51.152;4.456;2023-03-14T01:28:54;15.43;;;3.38;;
22715;SDS011;11525;51.152;4.456;2023-03-14T01:31:20;9.57;;;2.40;;
22715;SDS011;11525;51.152;4.456;2023-03-14T01:33:46;12.05;;;3.10;;
22715;SDS011;11525;51.152;4.456;2023-03-14T01:36:12;9.70;;;2.50;;
22715;SDS011;11525;51.152;4.456;2023-03-14T01:38:39;12.65;;;3.10;;
22715;SDS011;11525;51.152;4.456;2023-03-14T01:41:06;8.50;;;2.88;;
22715;SDS011;11525;51.152;4.456;2023-03-14T01:43:33;7.65;;;2.80;;
22715;SDS011;11525;51.152;4.456;2023-03-14T01:48:42;11.27;;;2.95;;
22715;SDS011;11525;51.152;4.456;2023-03-14T01:51:39;12.02;;;2.47;;
22715;SDS011;11525;51.152;4.456;2023-03-14T01:54:14;8.95;;;3.60;;
22715;SDS011;11525;51.152;4.456;2023-03-14T01:56:46;12.60;;;3.40;;
22715;SDS011;11525;51.152;4.456;2023-03-14T01:59:17;16.48;;;2.83;;
22715;SDS011;11525;51.152;4.456;2023-03-14T02:01:44;14.60;;;2.78;;
22715;SDS011;11525;51.152;4.456;2023-03-14T02:04:13;12.15;;;3.15;;
22715;SDS011;11525;51.152;4.456;2023-03-14T02:06:47;9.75;;;2.75;;
22715;SDS011;11525;51.152;4.456;2023-03-14T02:09:21;14.70;;;3.13;;
22715;SDS011;11525;51.152;4.456;2023-03-14T02:11:48;12.82;;;3.13;;
22715;SDS011;11525;51.152;4.456;2023-03-14T02:14:32;12.30;;;3.53;;
22715;SDS011;11525;51.152;4.456;2023-03-14T02:17:00;12.63;;;3.08;;
22715;SDS011;11525;51.152;4.456;2023-03-14T02:22:23;9.20;;;1.95;;
22715;SDS011;11525;51.152;4.456;2023-03-14T02:27:27;7.15;;;2.33;;
22715;SDS011;11525;51.152;4.456;2023-03-14T02:29:57;11.52;;;2.85;;
22715;SDS011;11525;51.152;4.456;2023-03-14T02:32:26;8.43;;;2.45;;
22715;SDS011;11525;51.152;4.456;2023-03-14T02:34:55;11.98;;;2.65;;
22715;SDS011;11525;51.152;4.456;2023-03-14T02:37:24;9.48;;;2.97;;
22715;SDS011;11525;51.152;4.456;2023-03-14T02:39:58;7.85;;;2.55;;
22715;SDS011;11525;51.152;4.456;2023-03-14T02:42:23;20.45;;;2.40;;
22715;SDS011;11525;51.152;4.456;2023-03-14T02:47:33;12.55;;;2.65;;
22715;SDS011;11525;51.152;4.456;2023-03-14T02:50:06;9.93;;;2.28;;
22715;SDS011;11525;51.152;4.456;2023-03-14T02:52:34;9.52;;;2.55;;
22715;SDS011;11525;51.152;4.456;2023-03-14T02:55:00;8.50;;;2.13;;
22715;SDS011;11525;51.152;4.456;2023-03-14T02:57:26;6.32;;;2.45;;
22715;SDS011;11525;51.152;4.456;2023-03-14T02:59:51;4.75;;;1.98;;
22715;SDS011;11525;51.152;4.456;2023-03-14T03:02:17;10.85;;;2.67;;
22715;SDS011;11525;51.152;4.456;2023-03-14T03:04:43;7.82;;;2.45;;
22715;SDS011;11525;51.152;4.456;2023-03-14T03:07:09;6.78;;;1.88;;
22715;SDS011;11525;51.152;4.456;2023-03-14T03:09:35;7.43;;;2.30;;
22715;SDS011;11525;51.152;4.456;2023-03-14T03:12:01;8.35;;;2.10;;
22715;SDS011;11525;51.152;4.456;2023-03-14T03:14:27;7.38;;;2.30;;
22715;SDS011;11525;51.152;4.456;2023-03-14T03:16:53;11.73;;;2.58;;
22715;SDS011;11525;51.152;4.456;2023-03-14T03:19:18;6.95;;;2.20;;
22715;SDS011;11525;51.152;4.456;2023-03-14T03:21:44;5.38;;;1.70;;
22715;SDS011;11525;51.152;4.456;2023-03-14T03:24:11;11.52;;;2.92;;
22715;SDS011;11525;51.152;4.456;2023-03-14T03:26:37;5.60;;;2.10;;
22715;SDS011;11525;51.152;4.456;2023-03-14T03:29:03;4.82;;;2.10;;
22715;SDS011;11525;51.152;4.456;2023-03-14T03:31:28;3.97;;;1.80;;
22715;SDS011;11525;51.152;4.456;2023-03-14T03:33:54;6.95;;;2.70;;
22715;SDS011;11525;51.152;4.456;2023-03-14T03:36:21;11.15;;;2.90;;
22715;SDS011;11525;51.152;4.456;2023-03-14T03:38:48;8.85;;;2.47;;
22715;SDS011;11525;51.152;4.456;2023-03-14T03:41:14;7.13;;;2.40;;
22715;SDS011;11525;51.152;4.456;2023-03-14T03:43:40;11.93;;;3.70;;
22715;SDS011;11525;51.152;4.456;2023-03-14T03:46:06;8.02;;;4.20;;
22715;SDS011;11525;51.152;4.456;2023-03-14T03:48:33;16.80;;;6.32;;
22715;SDS011;11525;51.152;4.456;2023-03-14T03:50:59;20.00;;;10.73;;
22715;SDS011;11525;51.152;4.456;2023-03-14T03:53:25;29.05;;;14.88;;
22715;SDS011;11525;51.152;4.456;2023-03-14T03:55:51;27.13;;;14.52;;
22715;SDS011;11525;51.152;4.456;2023-03-14T03:58:17;27.83;;;15.40;;
22715;SDS011;11525;51.152;4.456;2023-03-14T04:00:43;40.15;;;21.15;;
22715;SDS011;11525;51.152;4.456;2023-03-14T04:03:08;54.17;;;27.27;;
22715;SDS011;11525;51.152;4.456;2023-03-14T04:05:34;46.88;;;24.13;;
22715;SDS011;11525;51.152;4.456;2023-03-14T04:08:00;47.05;;;23.88;;
22715;SDS011;11525;51.152;4.456;2023-03-14T04:10:28;44.90;;;22.13;;
22715;SDS011;11525;51.152;4.456;2023-03-14T04:12:54;35.45;;;15.98;;
22715;SDS011;11525;51.152;4.456;2023-03-14T04:15:20;19.08;;;8.00;;
22715;SDS011;11525;51.152;4.456;2023-03-14T04:17:46;16.85;;;5.32;;
22715;SDS011;11525;51.152;4.456;2023-03-14T04:20:12;11.15;;;3.30;;
22715;SDS011;11525;51.152;4.456;2023-03-14T04:22:38;8.88;;;3.45;;
22715;SDS011;11525;51.152;4.456;2023-03-14T04:25:04;10.20;;;3.47;;
22715;SDS011;11525;51.152;4.456;2023-03-14T04:27:31;16.90;;;3.58;;
22715;SDS011;11525;51.152;4.456;2023-03-14T04:29:57;10.75;;;3.08;;
22715;SDS011;11525;51.152;4.456;2023-03-14T04:32:23;8.13;;;3.42;;
22715;SDS011;11525;51.152;4.456;2023-03-14T04:34:49;8.13;;;2.95;;
22715;SDS011;11525;51.152;4.456;2023-03-14T04:37:14;12.40;;;3.58;;
22715;SDS011;11525;51.152;4.456;2023-03-14T04:39:40;12.23;;;3.75;;
22715;SDS011;11525;51.152;4.456;2023-03-14T04:42:06;8.88;;;3.38;;
22715;SDS011;11525;51.152;4.456;2023-03-14T04:44:32;9.77;;;3.13;;
22715;SDS011;11525;51.152;4.456;2023-03-14T04:46:58;11.90;;;3.13;;
22715;SDS011;11525;51.152;4.456;2023-03-14T04:49:24;10.18;;;3.33;;
22715;SDS011;11525;51.152;4.456;2023-03-14T04:51:49;8.30;;;3.25;;
22715;SDS011;11525;51.152;4.456;2023-03-14T04:54:16;17.38;;;3.65;;
22715;SDS011;11525;51.152;4.456;2023-03-14T04:56:42;6.20;;;3.08;;
22715;SDS011;11525;51.152;4.456;2023-03-14T04:59:08;5.95;;;3.08;;
22715;SDS011;11525;51.152;4.456;2023-03-14T05:01:34;11.82;;;3.72;;
22715;SDS011;11525;51.152;4.456;2023-03-14T05:04:00;7.95;;;3.92;;
22715;SDS011;11525;51.152;4.456;2023-03-14T05:06:26;6.32;;;2.83;;
22715;SDS011;11525;51.152;4.456;2023-03-14T05:08:52;6.70;;;3.10;;
22715;SDS011;11525;51.152;4.456;2023-03-14T05:11:18;8.18;;;3.40;;
22715;SDS011;11525;51.152;4.456;2023-03-14T05:13:44;12.20;;;4.05;;
22715;SDS011;11525;51.152;4.456;2023-03-14T05:16:10;5.57;;;3.17;;
22715;SDS011;11525;51.152;4.456;2023-03-14T05:18:36;6.72;;;3.67;;
22715;SDS011;11525;51.152;4.456;2023-03-14T05:21:03;10.23;;;3.00;;
22715;SDS011;11525;51.152;4.456;2023-03-14T05:23:29;10.75;;;3.60;;
22715;SDS011;11525;51.152;4.456;2023-03-14T05:25:55;5.32;;;2.50;;
22715;SDS011;11525;51.152;4.456;2023-03-14T05:28:21;9.88;;;3.20;;
22715;SDS011;11525;51.152;4.456;2023-03-14T05:30:47;8.32;;;4.32;;
22715;SDS011;11525;51.152;4.456;2023-03-14T05:33:12;9.02;;;3.45;;
22715;SDS011;11525;51.152;4.456;2023-03-14T05:35:38;6.57;;;3.72;;
22715;SDS011;11525;51.152;4.456;2023-03-14T05:38:04;5.78;;;3.50;;
22715;SDS011;11525;51.152;4.456;2023-03-14T05:40:29;6.65;;;3.10;;
22715;SDS011;11525;51.152;4.456;2023-03-14T05:42:55;6.45;;;3.17;;
22715;SDS011;11525;51.152;4.456;2023-03-14T05:45:21;5.35;;;2.60;;
22715;SDS011;11525;51.152;4.456;2023-03-14T05:47:47;6.75;;;3.05;;
22715;SDS011;11525;51.152;4.456;2023-03-14T05:50:13;6.30;;;3.38;;
22715;SDS011;11525;51.152;4.456;2023-03-14T05:52:39;7.75;;;3.40;;
22715;SDS011;11525;51.152;4.456;2023-03-14T05:55:05;4.50;;;3.45;;
22715;SDS011;11525;51.152;4.456;2023-03-14T05:57:31;9.02;;;3.63;;
22715;SDS011;11525;51.152;4.456;2023-03-14T05:59:56;5.93;;;3.85;;
22715;SDS011;11525;51.152;4.456;2023-03-14T06:02:22;10.45;;;4.47;;
22715;SDS011;11525;51.152;4.456;2023-03-14T06:04:48;4.93;;;3.65;;
22715;SDS011;11525;51.152;4.456;2023-03-14T06:07:14;5.93;;;3.50;;
22715;SDS011;11525;51.152;4.456;2023-03-14T06:09:39;9.68;;;4.13;;
22715;SDS011;11525;51.152;4.456;2023-03-14T06:12:05;7.30;;;3.83;;
22715;SDS011;11525;51.152;4.456;2023-03-14T06:14:31;9.50;;;4.18;;
22715;SDS011;11525;51.152;4.456;2023-03-14T06:16:57;6.30;;;3.95;;
22715;SDS011;11525;51.152;4.456;2023-03-14T06:19:24;6.78;;;3.85;;
22715;SDS011;11525;51.152;4.456;2023-03-14T06:21:50;10.18;;;4.40;;
22715;SDS011;11525;51.152;4.456;2023-03-14T06:24:16;8.77;;;5.15;;
22715;SDS011;11525;51.152;4.456;2023-03-14T06:26:42;7.55;;;4.28;;
22715;SDS011;11525;51.152;4.456;2023-03-14T06:29:08;8.50;;;4.32;;
22715;SDS011;11525;51.152;4.456;2023-03-14T06:31:34;7.80;;;3.75;;
22715;SDS011;11525;51.152;4.456;2023-03-14T06:34:00;8.75;;;4.53;;
22715;SDS011;11525;51.152;4.456;2023-03-14T06:36:25;9.07;;;4.40;;
22715;SDS011;11525;51.152;4.456;2023-03-14T06:38:51;7.82;;;3.85;;
22715;SDS011;11525;51.152;4.456;2023-03-14T06:41:17;5.15;;;2.30;;
22715;SDS011;11525;51.152;4.456;2023-03-14T06:43:43;2.70;;;2.10;;
22715;SDS011;11525;51.152;4.456;2023-03-14T06:46:09;5.45;;;2.17;;
22715;SDS011;11525;51.152;4.456;2023-03-14T06:48:35;6.32;;;2.28;;
22715;SDS011;11525;51.152;4.456;2023-03-14T06:51:00;6.88;;;2.53;;
22715;SDS011;11525;51.152;4.456;2023-03-14T06:53:26;3.17;;;2.28;;
22715;SDS011;11525;51.152;4.456;2023-03-14T06:55:52;2.65;;;2.30;;
22715;SDS011;11525;51.152;4.456;2023-03-14T06:58:18;3.78;;;2.13;;
22715;SDS011;11525;51.152;4.456;2023-03-14T07:00:44;6.65;;;2.03;;
22715;SDS011;11525;51.152;4.456;2023-03-14T07:03:10;4.68;;;2.08;;
22715;SDS011;11525;51.152;4.456;2023-03-14T07:05:37;6.47;;;2.20;;
22715;SDS011;11525;51.152;4.456;2023-03-14T07:08:05;4.60;;;2.70;;
22715;SDS011;11525;51.152;4.456;2023-03-14T07:10:31;5.85;;;4.20;;
22715;SDS011;11525;51.152;4.456;2023-03-14T07:12:57;8.15;;;4.53;;
22715;SDS011;11525;51.152;4.456;2023-03-14T07:15:23;6.75;;;3.75;;
22715;SDS011;11525;51.152;4.456;2023-03-14T07:17:48;9.45;;;3.72;;
22715;SDS011;11525;51.152;4.456;2023-03-14T07:20:14;7.83;;;4.00;;
22715;SDS011;11525;51.152;4.456;2023-03-14T07:22:40;11.65;;;3.55;;
22715;SDS011;11525;51.152;4.456;2023-03-14T07:25:06;9.10;;;3.50;;
22715;SDS011;11525;51.152;4.456;2023-03-14T07:27:34;9.13;;;3.47;;
22715;SDS011;11525;51.152;4.456;2023-03-14T07:30:00;8.35;;;2.95;;
22715;SDS011;11525;51.152;4.456;2023-03-14T07:32:25;7.40;;;3.15;;
22715;SDS011;11525;51.152;4.456;2023-03-14T07:34:51;8.82;;;2.50;;
22715;SDS011;11525;51.152;4.456;2023-03-14T07:37:17;10.90;;;2.88;;
22715;SDS011;11525;51.152;4.456;2023-03-14T07:39:42;10.63;;;2.95;;
22715;SDS011;11525;51.152;4.456;2023-03-14T07:42:08;10.70;;;2.90;;
22715;SDS011;11525;51.152;4.456;2023-03-14T07:44:35;8.43;;;2.75;;
22715;SDS011;11525;51.152;4.456;2023-03-14T07:47:01;7.10;;;2.67;;
22715;SDS011;11525;51.152;4.456;2023-03-14T07:49:27;7.40;;;3.35;;
22715;SDS011;11525;51.152;4.456;2023-03-14T07:51:53;7.53;;;3.05;;
22715;SDS011;11525;51.152;4.456;2023-03-14T07:54:19;12.57;;;3.20;;
22715;SDS011;11525;51.152;4.456;2023-03-14T07:56:45;13.93;;;2.92;;
22715;SDS011;11525;51.152;4.456;2023-03-14T07:59:11;13.57;;;5.38;;
22715;SDS011;11525;51.152;4.456;2023-03-14T08:01:37;10.55;;;3.45;;
22715;SDS011;11525;51.152;4.456;2023-03-14T08:04:03;13.93;;;3.28;;
22715;SDS011;11525;51.152;4.456;2023-03-14T08:06:31;8.50;;;3.60;;
22715;SDS011;11525;51.152;4.456;2023-03-14T08:08:57;14.52;;;3.33;;
22715;SDS011;11525;51.152;4.456;2023-03-14T08:11:23;5.85;;;2.88;;
22715;SDS011;11525;51.152;4.456;2023-03-14T08:13:48;5.50;;;2.83;;
22715;SDS011;11525;51.152;4.456;2023-03-14T08:16:16;10.30;;;3.10;;
22715;SDS011;11525;51.152;4.456;2023-03-14T08:18:42;6.95;;;2.42;;
22715;SDS011;11525;51.152;4.456;2023-03-14T08:21:08;8.73;;;2.45;;
22715;SDS011;11525;51.152;4.456;2023-03-14T08:23:34;8.35;;;2.63;;
22715;SDS011;11525;51.152;4.456;2023-03-14T08:26:00;12.50;;;3.00;;
22715;SDS011;11525;51.152;4.456;2023-03-14T08:28:26;5.72;;;2.55;;
22715;SDS011;11525;51.152;4.456;2023-03-14T08:30:56;6.95;;;2.50;;
22715;SDS011;11525;51.152;4.456;2023-03-14T08:33:22;7.10;;;2.70;;
22715;SDS011;11525;51.152;4.456;2023-03-14T08:35:48;11.30;;;2.80;;
22715;SDS011;11525;51.152;4.456;2023-03-14T08:38:17;5.03;;;2.03;;
22715;SDS011;11525;51.152;4.456;2023-03-14T08:40:43;5.05;;;2.03;;
22715;SDS011;11525;51.152;4.456;2023-03-14T08:43:09;3.95;;;2.00;;
22715;SDS011;11525;51.152;4.456;2023-03-14T08:45:34;3.63;;;1.92;;
22715;SDS011;11525;51.152;4.456;2023-03-14T08:48:00;5.68;;;2.17;;
22715;SDS011;11525;51.152;4.456;2023-03-14T08:50:26;3.55;;;2.05;;
22715;SDS011;11525;51.152;4.456;2023-03-14T08:52:52;8.05;;;2.50;;
22715;SDS011;11525;51.152;4.456;2023-03-14T08:55:17;7.70;;;2.40;;
22715;SDS011;11525;51.152;4.456;2023-03-14T08:57:45;6.38;;;2.88;;
22715;SDS011;11525;51.152;4.456;2023-03-14T09:00:11;7.40;;;2.60;;
22715;SDS011;11525;51.152;4.456;2023-03-14T09:02:40;6.90;;;2.80;;
22715;SDS011;11525;51.152;4.456;2023-03-14T09:05:07;5.90;;;2.45;;
22715;SDS011;11525;51.152;4.456;2023-03-14T09:07:33;7.00;;;2.90;;
22715;SDS011;11525;51.152;4.456;2023-03-14T09:09:59;11.88;;;2.90;;
22715;SDS011;11525;51.152;4.456;2023-03-14T09:12:24;5.30;;;2.70;;
22715;SDS011;11525;51.152;4.456;2023-03-14T09:14:50;5.38;;;2.53;;
22715;SDS011;11525;51.152;4.456;2023-03-14T09:17:16;4.80;;;2.17;;
22715;SDS011;11525;51.152;4.456;2023-03-14T09:19:42;2.50;;;2.20;;
22715;SDS011;11525;51.152;4.456;2023-03-14T09:22:07;6.35;;;2.22;;
22715;SDS011;11525;51.152;4.456;2023-03-14T09:24:33;3.65;;;1.60;;
22715;SDS011;11525;51.152;4.456;2023-03-14T09:26:59;4.15;;;1.83;;
22715;SDS011;11525;51.152;4.456;2023-03-14T09:29:24;1.90;;;1.40;;
22715;SDS011;11525;51.152;4.456;2023-03-14T09:31:50;3.65;;;1.50;;
22715;SDS011;11525;51.152;4.456;2023-03-14T09:34:16;4.85;;;1.70;;
22715;SDS011;11525;51.152;4.456;2023-03-14T09:36:42;1.98;;;1.77;;
22715;SDS011;11525;51.152;4.456;2023-03-14T09:39:09;3.92;;;1.45;;
22715;SDS011;11525;51.152;4.456;2023-03-14T09:41:37;2.25;;;1.55;;
22715;SDS011;11525;51.152;4.456;2023-03-14T09:44:08;3.40;;;1.60;;
22715;SDS011;11525;51.152;4.456;2023-03-14T09:46:46;3.55;;;1.83;;
22715;SDS011;11525;51.152;4.456;2023-03-14T09:49:26;2.42;;;1.30;;
22715;SDS011;11525;51.152;4.456;2023-03-14T09:51:55;3.38;;;1.70;;
22715;SDS011;11525;51.152;4.456;2023-03-14T09:54:35;3.95;;;1.40;;
22715;SDS011;11525;51.152;4.456;2023-03-14T09:57:04;5.40;;;2.13;;
22715;SDS011;11525;51.152;4.456;2023-03-14T09:59:31;4.88;;;1.88;;
22715;SDS011;11525;51.152;4.456;2023-03-14T10:02:02;5.82;;;2.35;;
22715;SDS011;11525;51.152;4.456;2023-03-14T10:04:45;5.15;;;2.83;;
22715;SDS011;11525;51.152;4.456;2023-03-14T10:07:13;5.45;;;2.42;;
22715;SDS011;11525;51.152;4.456;2023-03-14T10:09:43;6.47;;;2.65;;
22715;SDS011;11525;51.152;4.456;2023-03-14T10:12:10;3.92;;;2.47;;
22715;SDS011;11525;51.152;4.456;2023-03-14T10:14:37;5.60;;;3.03;;
22715;SDS011;11525;51.152;4.456;2023-03-14T10:17:11;8.10;;;2.28;;
22715;SDS011;11525;51.152;4.456;2023-03-14T10:19:50;5.95;;;2.35;;
22715;SDS011;11525;51.152;4.456;2023-03-14T10:22:16;7.00;;;2.72;;
22715;SDS011;11525;51.152;4.456;2023-03-14T10:24:46;5.10;;;2.10;;
22715;SDS011;11525;51.152;4.456;2023-03-14T10:27:23;6.57;;;2.22;;
22715;SDS011;11525;51.152;4.456;2023-03-14T10:29:59;5.22;;;2.17;;
22715;SDS011;11525;51.152;4.456;2023-03-14T10:32:34;6.30;;;2.30;;
22715;SDS011;11525;51.152;4.456;2023-03-14T10:37:30;5.95;;;2.45;;
22715;SDS011;11525;51.152;4.456;2023-03-14T10:39:58;6.30;;;2.28;;
22715;SDS011;11525;51.152;4.456;2023-03-14T10:42:31;11.02;;;2.30;;
22715;SDS011;11525;51.152;4.456;2023-03-14T10:45:00;10.70;;;2.42;;
22715;SDS011;11525;51.152;4.456;2023-03-14T10:47:28;13.55;;;3.75;;
22715;SDS011;11525;51.152;4.456;2023-03-14T10:49:55;6.03;;;2.28;;
22715;SDS011;11525;51.152;4.456;2023-03-14T10:54:54;6.28;;;1.83;;
22715;SDS011;11525;51.152;4.456;2023-03-14T10:57:26;12.13;;;2.45;;
22715;SDS011;11525;51.152;4.456;2023-03-14T10:59:53;8.77;;;2.22;;
22715;SDS011;11525;51.152;4.456;2023-03-14T11:05:34;14.18;;;2.08;;
22715;SDS011;11525;51.152;4.456;2023-03-14T11:08:15;5.32;;;1.98;;
22715;SDS011;11525;51.152;4.456;2023-03-14T11:10:54;6.53;;;2.17;;
22715;SDS011;11525;51.152;4.456;2023-03-14T11:13:32;6.53;;;2.45;;
22715;SDS011;11525;51.152;4.456;2023-03-14T11:32:19;8.20;;;3.20;;
22715;SDS011;11525;51.152;4.456;2023-03-14T11:34:54;4.50;;;2.30;;
22715;SDS011;11525;51.152;4.456;2023-03-14T11:37:32;16.13;;;3.97;;
22715;SDS011;11525;51.152;4.456;2023-03-14T11:40:02;8.90;;;2.42;;
22715;SDS011;11525;51.152;4.456;2023-03-14T11:42:38;9.10;;;2.95;;
22715;SDS011;11525;51.152;4.456;2023-03-14T11:45:13;12.02;;;3.15;;
22715;SDS011;11525;51.152;4.456;2023-03-14T11:47:50;11.35;;;2.92;;
22715;SDS011;11525;51.152;4.456;2023-03-14T11:50:36;9.02;;;3.08;;
22715;SDS011;11525;51.152;4.456;2023-03-14T11:53:07;12.23;;;3.13;;
22715;SDS011;11525;51.152;4.456;2023-03-14T11:55:39;13.48;;;3.35;;
22715;SDS011;11525;51.152;4.456;2023-03-14T11:58:17;19.10;;;4.35;;
22715;SDS011;11525;51.152;4.456;2023-03-14T12:00:53;20.58;;;4.03;;
22715;SDS011;11525;51.152;4.456;2023-03-14T12:11:17;16.65;;;3.58;;
22715;SDS011;11525;51.152;4.456;2023-03-14T12:13:57;17.60;;;4.22;;
22715;SDS011;11525;51.152;4.456;2023-03-14T12:28:30;15.35;;;3.25;;
22715;SDS011;11525;51.152;4.456;2023-03-14T12:43:30;18.90;;;4.32;;
22715;SDS011;11525;51.152;4.456;2023-03-14T12:48:44;21.05;;;4.25;;
22715;SDS011;11525;51.152;4.456;2023-03-14T12:51:19;18.17;;;4.43;;
22715;SDS011;11525;51.152;4.456;2023-03-14T12:56:28;22.17;;;4.90;;
22715;SDS011;11525;51.152;4.456;2023-03-14T13:01:54;23.95;;;4.93;;
22715;SDS011;11525;51.152;4.456;2023-03-14T13:04:43;20.27;;;4.88;;
22715;SDS011;11525;51.152;4.456;2023-03-14T13:07:12;22.70;;;4.50;;
22715;SDS011;11525;51.152;4.456;2023-03-14T13:12:39;14.77;;;4.35;;
22715;SDS011;11525;51.152;4.456;2023-03-14T13:15:20;14.70;;;4.50;;
22715;SDS011;11525;51.152;4.456;2023-03-14T13:18:02;24.17;;;5.50;;
22715;SDS011;11525;51.152;4.456;2023-03-14T13:23:35;9.60;;;3.28;;
22715;SDS011;11525;51.152;4.456;2023-03-14T13:26:02;12.93;;;4.00;;
22715;SDS011;11525;51.152;4.456;2023-03-14T13:28:31;16.55;;;3.83;;
22715;SDS011;11525;51.152;4.456;2023-03-14T13:31:00;19.08;;;3.97;;
22715;SDS011;11525;51.152;4.456;2023-03-14T13:33:31;12.65;;;3.53;;
22715;SDS011;11525;51.152;4.456;2023-03-14T13:35:59;17.50;;;3.45;;
22715;SDS011;11525;51.152;4.456;2023-03-14T13:38:30;12.18;;;3.60;;
22715;SDS011;11525;51.152;4.456;2023-03-14T13:40:59;7.25;;;2.20;;
22715;SDS011;11525;51.152;4.456;2023-03-14T13:43:32;8.77;;;2.20;;
22715;SDS011;11525;51.152;4.456;2023-03-14T13:48:48;9.85;;;2.08;;
22715;SDS011;11525;51.152;4.456;2023-03-14T13:51:19;8.13;;;2.75;;
22715;SDS011;11525;51.152;4.456;2023-03-14T13:53:47;9.38;;;2.45;;
22715;SDS011;11525;51.152;4.456;2023-03-14T13:56:15;14.73;;;2.80;;
22715;SDS011;11525;51.152;4.456;2023-03-14T13:58:48;7.80;;;2.33;;
22715;SDS011;11525;51.152;4.456;2023-03-14T14:03:56;6.05;;;2.53;;
22715;SDS011;11525;51.152;4.456;2023-03-14T14:06:30;11.15;;;2.70;;
22715;SDS011;11525;51.152;4.456;2023-03-14T14:09:01;13.18;;;2.60;;
22715;SDS011;11525;51.152;4.456;2023-03-14T14:14:08;5.57;;;2.47;;
22715;SDS011;11525;51.152;4.456;2023-03-14T14:16:38;8.43;;;2.08;;
22715;SDS011;11525;51.152;4.456;2023-03-14T14:19:05;1.50;;;1.40;;
22715;SDS011;11525;51.152;4.456;2023-03-14T14:21:31;4.20;;;1.38;;
22715;SDS011;11525;51.152;4.456;2023-03-14T14:23:57;3.30;;;1.40;;
22715;SDS011;11525;51.152;4.456;2023-03-14T14:26:25;4.88;;;1.40;;
22715;SDS011;11525;51.152;4.456;2023-03-14T14:29:02;4.50;;;1.70;;
22715;SDS011;11525;51.152;4.456;2023-03-14T14:31:29;1.83;;;1.40;;
22715;SDS011;11525;51.152;4.456;2023-03-14T14:36:28;2.47;;;1.45;;
22715;SDS011;11525;51.152;4.456;2023-03-14T14:39:19;3.60;;;1.67;;
22715;SDS011;11525;51.152;4.456;2023-03-14T14:41:51;4.20;;;1.27;;
22715;SDS011;11525;51.152;4.456;2023-03-14T14:44:18;4.30;;;1.70;;
22715;SDS011;11525;51.152;4.456;2023-03-14T14:46:54;2.53;;;1.52;;
22715;SDS011;11525;51.152;4.456;2023-03-14T14:49:20;3.53;;;1.63;;
22715;SDS011;11525;51.152;4.456;2023-03-14T14:51:50;2.90;;;1.67;;
22715;SDS011;11525;51.152;4.456;2023-03-14T14:54:17;5.38;;;1.73;;
22715;SDS011;11525;51.152;4.456;2023-03-14T14:56:48;5.97;;;1.83;;
22715;SDS011;11525;51.152;4.456;2023-03-14T14:59:25;5.20;;;1.83;;
22715;SDS011;11525;51.152;4.456;2023-03-14T15:01:59;5.55;;;1.60;;
22715;SDS011;11525;51.152;4.456;2023-03-14T15:04:26;10.45;;;2.60;;
22715;SDS011;11525;51.152;4.456;2023-03-14T15:06:55;9.02;;;2.15;;
22715;SDS011;11525;51.152;4.456;2023-03-14T15:09:21;8.05;;;2.05;;
22715;SDS011;11525;51.152;4.456;2023-03-14T15:11:47;7.53;;;2.28;;
22715;SDS011;11525;51.152;4.456;2023-03-14T15:14:13;8.63;;;2.83;;
22715;SDS011;11525;51.152;4.456;2023-03-14T15:16:39;5.63;;;2.10;;
22715;SDS011;11525;51.152;4.456;2023-03-14T15:19:19;10.23;;;2.78;;
22715;SDS011;11525;51.152;4.456;2023-03-14T15:21:46;11.07;;;3.00;;
22715;SDS011;11525;51.152;4.456;2023-03-14T15:24:12;11.95;;;2.75;;
22715;SDS011;11525;51.152;4.456;2023-03-14T15:26:38;9.23;;;2.65;;
22715;SDS011;11525;51.152;4.456;2023-03-14T15:29:03;15.82;;;2.53;;
22715;SDS011;11525;51.152;4.456;2023-03-14T15:31:33;15.40;;;3.30;;
22715;SDS011;11525;51.152;4.456;2023-03-14T15:33:59;10.68;;;2.40;;
22715;SDS011;11525;51.152;4.456;2023-03-14T15:38:52;9.93;;;2.97;;
22715;SDS011;11525;51.152;4.456;2023-03-14T15:41:19;9.70;;;2.30;;
22715;SDS011;11525;51.152;4.456;2023-03-14T15:43:46;9.85;;;2.00;;
22715;SDS011;11525;51.152;4.456;2023-03-14T15:46:12;7.35;;;2.70;;
22715;SDS011;11525;51.152;4.456;2023-03-14T15:48:39;7.32;;;2.47;;
22715;SDS011;11525;51.152;4.456;2023-03-14T15:51:05;12.25;;;3.20;;
22715;SDS011;11525;51.152;4.456;2023-03-14T15:53:31;16.75;;;2.92;;
22715;SDS011;11525;51.152;4.456;2023-03-14T15:55:57;15.43;;;2.60;;
22715;SDS011;11525;51.152;4.456;2023-03-14T15:58:23;12.93;;;2.83;;
22715;SDS011;11525;51.152;4.456;2023-03-14T16:00:49;12.50;;;2.58;;
22715;SDS011;11525;51.152;4.456;2023-03-14T16:03:15;13.10;;;2.58;;
22715;SDS011;11525;51.152;4.456;2023-03-14T16:05:41;13.43;;;2.08;;
22715;SDS011;11525;51.152;4.456;2023-03-14T16:08:07;15.77;;;2.72;;
22715;SDS011;11525;51.152;4.456;2023-03-14T16:10:33;18.25;;;3.35;;
22715;SDS011;11525;51.152;4.456;2023-03-14T16:12:59;8.75;;;2.78;;
22715;SDS011;11525;51.152;4.456;2023-03-14T16:15:25;6.72;;;2.50;;
22715;SDS011;11525;51.152;4.456;2023-03-14T16:17:54;6.90;;;2.63;;
22715;SDS011;11525;51.152;4.456;2023-03-14T16:20:21;7.88;;;1.92;;
22715;SDS011;11525;51.152;4.456;2023-03-14T16:22:47;12.68;;;3.25;;